sensor_id;sensor_type;location;lat;lon;timestamp;P1;durP1;ratioP1;P2;durP2;ratioP2
75520;SDS011;64102;48.628;9.002;2023-02-15T00:02:22;6.35;;;1.23;;
75520;SDS011;64102;48.628;9.002;2023-02-15T00:04:49;5.25;;;0.80;;
75520;SDS011;64102;48.628;9.002;2023-02-15T00:07:15;6.25;;;1.30;;
75520;SDS011;64102;48.628;9.002;2023-02-15T00:09:42;15.77;;;2.28;;
75520;SDS011;64102;48.628;9.002;2023-02-15T00:12:08;13.77;;;2.00;;
75520;SDS011;64102;48.628;9.002;2023-02-15T00:14:34;9.60;;;1.27;;
75520;SDS011;64102;48.628;9.002;2023-02-15T00:17:00;7.73;;;1.87;;
75520;SDS011;64102;48.628;9.002;2023-02-15T00:19:25;10.13;;;0.50;;
75520;SDS011;64102;48.628;9.002;2023-02-15T00:21:51;6.65;;;1.48;;
75520;SDS011;64102;48.628;9.002;2023-02-15T00:24:17;8.07;;;1.42;;
75520;SDS011;64102;48.628;9.002;2023-02-15T00:26:44;5.85;;;1.13;;
75520;SDS011;64102;48.628;9.002;2023-02-15T00:29:10;5.65;;;1.08;;
75520;SDS011;64102;48.628;9.002;2023-02-15T00:31:37;9.52;;;1.67;;
75520;SDS011;64102;48.628;9.002;2023-02-15T00:34:14;11.23;;;1.42;;
75520;SDS011;64102;48.628;9.002;2023-02-15T00:36:42;8.93;;;1.15;;
75520;SDS011;64102;48.628;9.002;2023-02-15T00:39:08;5.85;;;1.30;;
75520;SDS011;64102;48.628;9.002;2023-02-15T00:41:34;6.28;;;1.15;;
75520;SDS011;64102;48.628;9.002;2023-02-15T00:44:00;7.55;;;1.20;;
75520;SDS011;64102;48.628;9.002;2023-02-15T00:46:26;4.47;;;0.95;;
75520;SDS011;64102;48.628;9.002;2023-02-15T00:48:51;6.47;;;1.70;;
75520;SDS011;64102;48.628;9.002;2023-02-15T00:51:17;7.83;;;0.97;;
75520;SDS011;64102;48.628;9.002;2023-02-15T00:53:42;5.28;;;0.55;;
75520;SDS011;64102;48.628;9.002;2023-02-15T00:56:11;5.75;;;1.23;;
75520;SDS011;64102;48.628;9.002;2023-02-15T00:58:37;6.60;;;1.15;;
75520;SDS011;64102;48.628;9.002;2023-02-15T01:01:03;5.82;;;1.20;;
75520;SDS011;64102;48.628;9.002;2023-02-15T01:03:31;5.63;;;0.75;;
75520;SDS011;64102;48.628;9.002;2023-02-15T01:05:57;8.63;;;1.40;;
75520;SDS011;64102;48.628;9.002;2023-02-15T01:08:22;6.83;;;1.03;;
75520;SDS011;64102;48.628;9.002;2023-02-15T01:10:47;7.57;;;1.07;;
75520;SDS011;64102;48.628;9.002;2023-02-15T01:13:14;10.02;;;1.48;;
75520;SDS011;64102;48.628;9.002;2023-02-15T01:15:40;7.80;;;1.05;;
75520;SDS011;64102;48.628;9.002;2023-02-15T01:18:06;7.28;;;0.93;;
75520;SDS011;64102;48.628;9.002;2023-02-15T01:20:34;7.17;;;1.00;;
75520;SDS011;64102;48.628;9.002;2023-02-15T01:23:03;11.32;;;2.15;;
75520;SDS011;64102;48.628;9.002;2023-02-15T01:25:29;10.95;;;2.10;;
75520;SDS011;64102;48.628;9.002;2023-02-15T01:27:55;12.07;;;1.43;;
75520;SDS011;64102;48.628;9.002;2023-02-15T01:30:20;7.20;;;0.93;;
75520;SDS011;64102;48.628;9.002;2023-02-15T01:32:45;9.55;;;1.20;;
75520;SDS011;64102;48.628;9.002;2023-02-15T01:35:11;7.87;;;1.10;;
75520;SDS011;64102;48.628;9.002;2023-02-15T01:37:37;6.50;;;0.93;;
75520;SDS011;64102;48.628;9.002;2023-02-15T01:40:05;10.10;;;1.88;;
75520;SDS011;64102;48.628;9.002;2023-02-15T01:42:32;6.38;;;1.65;;
75520;SDS011;64102;48.628;9.002;2023-02-15T01:44:59;6.30;;;1.33;;
75520;SDS011;64102;48.628;9.002;2023-02-15T01:47:32;5.68;;;1.40;;
75520;SDS011;64102;48.628;9.002;2023-02-15T01:52:46;6.43;;;1.02;;
75520;SDS011;64102;48.628;9.002;2023-02-15T01:55:16;6.10;;;0.88;;
75520;SDS011;64102;48.628;9.002;2023-02-15T01:57:42;8.35;;;0.95;;
75520;SDS011;64102;48.628;9.002;2023-02-15T02:00:10;8.05;;;1.00;;
75520;SDS011;64102;48.628;9.002;2023-02-15T02:02:36;8.20;;;1.33;;
75520;SDS011;64102;48.628;9.002;2023-02-15T02:05:02;5.65;;;1.10;;
75520;SDS011;64102;48.628;9.002;2023-02-15T02:07:34;5.15;;;0.65;;
75520;SDS011;64102;48.628;9.002;2023-02-15T02:10:04;9.75;;;1.25;;
75520;SDS011;64102;48.628;9.002;2023-02-15T02:12:30;8.48;;;1.10;;
75520;SDS011;64102;48.628;9.002;2023-02-15T02:14:56;10.88;;;1.30;;
75520;SDS011;64102;48.628;9.002;2023-02-15T02:20:16;6.30;;;0.98;;
75520;SDS011;64102;48.628;9.002;2023-02-15T02:39:59;7.93;;;0.80;;
75520;SDS011;64102;48.628;9.002;2023-02-15T02:42:43;7.30;;;0.90;;
75520;SDS011;64102;48.628;9.002;2023-02-15T02:45:34;4.90;;;1.15;;
75520;SDS011;64102;48.628;9.002;2023-02-15T02:48:13;3.15;;;0.63;;
75520;SDS011;64102;48.628;9.002;2023-02-15T02:50:44;4.28;;;0.60;;
75520;SDS011;64102;48.628;9.002;2023-02-15T02:53:09;6.22;;;1.05;;
75520;SDS011;64102;48.628;9.002;2023-02-15T02:58:41;7.13;;;1.25;;
75520;SDS011;64102;48.628;9.002;2023-02-15T03:01:21;7.00;;;1.08;;
75520;SDS011;64102;48.628;9.002;2023-02-15T03:03:59;7.35;;;0.93;;
75520;SDS011;64102;48.628;9.002;2023-02-15T03:06:33;4.88;;;1.13;;
75520;SDS011;64102;48.628;9.002;2023-02-15T03:09:46;9.93;;;1.17;;
75520;SDS011;64102;48.628;9.002;2023-02-15T03:12:13;5.38;;;1.48;;
75520;SDS011;64102;48.628;9.002;2023-02-15T03:14:41;10.95;;;2.30;;
75520;SDS011;64102;48.628;9.002;2023-02-15T03:17:12;5.65;;;0.98;;
75520;SDS011;64102;48.628;9.002;2023-02-15T03:19:39;5.80;;;1.10;;
75520;SDS011;64102;48.628;9.002;2023-02-15T03:22:15;4.70;;;0.93;;
75520;SDS011;64102;48.628;9.002;2023-02-15T03:24:53;4.78;;;1.17;;
75520;SDS011;64102;48.628;9.002;2023-02-15T03:27:37;4.00;;;0.80;;
75520;SDS011;64102;48.628;9.002;2023-02-15T03:30:06;3.85;;;0.40;;
75520;SDS011;64102;48.628;9.002;2023-02-15T03:32:34;2.85;;;0.32;;
75520;SDS011;64102;48.628;9.002;2023-02-15T03:35:04;3.42;;;0.52;;
75520;SDS011;64102;48.628;9.002;2023-02-15T03:43:30;7.03;;;0.80;;
75520;SDS011;64102;48.628;9.002;2023-02-15T03:46:11;7.65;;;1.05;;
75520;SDS011;64102;48.628;9.002;2023-02-15T03:48:47;6.78;;;0.73;;
75520;SDS011;64102;48.628;9.002;2023-02-15T03:51:18;6.72;;;1.25;;
75520;SDS011;64102;48.628;9.002;2023-02-15T03:53:59;6.43;;;1.00;;
75520;SDS011;64102;48.628;9.002;2023-02-15T03:56:27;3.70;;;0.47;;
75520;SDS011;64102;48.628;9.002;2023-02-15T03:58:52;3.93;;;0.57;;
75520;SDS011;64102;48.628;9.002;2023-02-15T04:04:43;4.18;;;0.80;;
75520;SDS011;64102;48.628;9.002;2023-02-15T04:07:11;4.28;;;0.57;;
75520;SDS011;64102;48.628;9.002;2023-02-15T04:09:37;7.50;;;1.13;;
75520;SDS011;64102;48.628;9.002;2023-02-15T04:12:21;5.55;;;0.90;;
75520;SDS011;64102;48.628;9.002;2023-02-15T04:14:46;4.97;;;1.33;;
75520;SDS011;64102;48.628;9.002;2023-02-15T04:17:30;8.27;;;0.73;;
75520;SDS011;64102;48.628;9.002;2023-02-15T04:19:55;7.05;;;1.77;;
75520;SDS011;64102;48.628;9.002;2023-02-15T04:22:39;6.93;;;0.82;;
75520;SDS011;64102;48.628;9.002;2023-02-15T04:25:24;13.98;;;1.77;;
75520;SDS011;64102;48.628;9.002;2023-02-15T04:27:50;8.75;;;2.00;;
75520;SDS011;64102;48.628;9.002;2023-02-15T04:30:18;10.63;;;1.60;;
75520;SDS011;64102;48.628;9.002;2023-02-15T04:32:45;8.75;;;0.98;;
75520;SDS011;64102;48.628;9.002;2023-02-15T04:35:11;2.42;;;0.25;;
75520;SDS011;64102;48.628;9.002;2023-02-15T04:37:38;6.78;;;0.70;;
75520;SDS011;64102;48.628;9.002;2023-02-15T04:40:04;9.23;;;1.23;;
75520;SDS011;64102;48.628;9.002;2023-02-15T04:42:30;6.38;;;0.82;;
75520;SDS011;64102;48.628;9.002;2023-02-15T04:44:56;3.33;;;0.50;;
75520;SDS011;64102;48.628;9.002;2023-02-15T04:47:21;3.30;;;0.75;;
75520;SDS011;64102;48.628;9.002;2023-02-15T04:49:47;5.22;;;0.63;;
75520;SDS011;64102;48.628;9.002;2023-02-15T04:52:13;6.40;;;1.33;;
75520;SDS011;64102;48.628;9.002;2023-02-15T04:54:38;4.70;;;1.00;;
75520;SDS011;64102;48.628;9.002;2023-02-15T04:57:04;10.27;;;1.10;;
75520;SDS011;64102;48.628;9.002;2023-02-15T04:59:30;8.45;;;1.38;;
75520;SDS011;64102;48.628;9.002;2023-02-15T05:01:55;4.95;;;1.02;;
75520;SDS011;64102;48.628;9.002;2023-02-15T05:04:21;4.07;;;1.15;;
75520;SDS011;64102;48.628;9.002;2023-02-15T05:06:46;9.07;;;0.85;;
75520;SDS011;64102;48.628;9.002;2023-02-15T05:09:12;6.97;;;1.00;;
75520;SDS011;64102;48.628;9.002;2023-02-15T05:11:38;8.70;;;1.20;;
75520;SDS011;64102;48.628;9.002;2023-02-15T05:14:03;10.63;;;2.37;;
75520;SDS011;64102;48.628;9.002;2023-02-15T05:16:29;8.77;;;1.23;;
75520;SDS011;64102;48.628;9.002;2023-02-15T05:18:55;7.85;;;1.20;;
75520;SDS011;64102;48.628;9.002;2023-02-15T05:21:20;6.15;;;1.00;;
75520;SDS011;64102;48.628;9.002;2023-02-15T05:23:45;9.63;;;0.90;;
75520;SDS011;64102;48.628;9.002;2023-02-15T05:26:11;7.13;;;0.87;;
75520;SDS011;64102;48.628;9.002;2023-02-15T05:29:01;6.90;;;0.45;;
75520;SDS011;64102;48.628;9.002;2023-02-15T05:31:26;2.67;;;0.67;;
75520;SDS011;64102;48.628;9.002;2023-02-15T05:33:51;6.10;;;0.93;;
75520;SDS011;64102;48.628;9.002;2023-02-15T05:36:17;5.50;;;0.83;;
75520;SDS011;64102;48.628;9.002;2023-02-15T05:38:42;7.85;;;1.25;;
75520;SDS011;64102;48.628;9.002;2023-02-15T05:41:08;7.00;;;0.90;;
75520;SDS011;64102;48.628;9.002;2023-02-15T05:43:35;2.47;;;0.38;;
75520;SDS011;64102;48.628;9.002;2023-02-15T05:46:01;7.93;;;0.73;;
75520;SDS011;64102;48.628;9.002;2023-02-15T05:48:27;5.68;;;0.98;;
75520;SDS011;64102;48.628;9.002;2023-02-15T05:53:25;3.97;;;0.75;;
75520;SDS011;64102;48.628;9.002;2023-02-15T05:55:58;3.37;;;0.47;;
75520;SDS011;64102;48.628;9.002;2023-02-15T05:58:25;7.22;;;1.00;;
75520;SDS011;64102;48.628;9.002;2023-02-15T06:00:51;6.95;;;0.57;;
75520;SDS011;64102;48.628;9.002;2023-02-15T06:03:17;10.57;;;1.70;;
75520;SDS011;64102;48.628;9.002;2023-02-15T06:05:42;7.50;;;1.43;;
75520;SDS011;64102;48.628;9.002;2023-02-15T06:08:07;4.95;;;1.10;;
75520;SDS011;64102;48.628;9.002;2023-02-15T06:10:33;9.40;;;1.33;;
75520;SDS011;64102;48.628;9.002;2023-02-15T06:12:58;6.60;;;1.67;;
75520;SDS011;64102;48.628;9.002;2023-02-15T06:15:23;10.43;;;0.83;;
75520;SDS011;64102;48.628;9.002;2023-02-15T06:17:48;15.73;;;3.30;;
75520;SDS011;64102;48.628;9.002;2023-02-15T06:20:14;13.57;;;2.53;;
75520;SDS011;64102;48.628;9.002;2023-02-15T06:22:39;10.15;;;2.28;;
75520;SDS011;64102;48.628;9.002;2023-02-15T06:25:05;11.53;;;2.17;;
75520;SDS011;64102;48.628;9.002;2023-02-15T06:27:30;6.80;;;1.27;;
75520;SDS011;64102;48.628;9.002;2023-02-15T06:29:56;6.55;;;1.30;;
75520;SDS011;64102;48.628;9.002;2023-02-15T06:32:21;6.10;;;0.90;;
75520;SDS011;64102;48.628;9.002;2023-02-15T06:34:46;3.88;;;1.05;;
75520;SDS011;64102;48.628;9.002;2023-02-15T06:37:12;11.23;;;1.50;;
75520;SDS011;64102;48.628;9.002;2023-02-15T06:39:37;4.17;;;1.07;;
75520;SDS011;64102;48.628;9.002;2023-02-15T06:42:02;3.27;;;0.93;;
75520;SDS011;64102;48.628;9.002;2023-02-15T06:44:28;3.63;;;0.87;;
75520;SDS011;64102;48.628;9.002;2023-02-15T06:46:53;4.67;;;0.53;;
75520;SDS011;64102;48.628;9.002;2023-02-15T06:49:18;6.90;;;0.80;;
75520;SDS011;64102;48.628;9.002;2023-02-15T06:51:44;6.10;;;0.90;;
75520;SDS011;64102;48.628;9.002;2023-02-15T06:54:09;4.88;;;0.93;;
75520;SDS011;64102;48.628;9.002;2023-02-15T06:56:34;7.67;;;1.03;;
75520;SDS011;64102;48.628;9.002;2023-02-15T06:59:00;2.17;;;0.32;;
75520;SDS011;64102;48.628;9.002;2023-02-15T07:01:26;4.18;;;1.02;;
75520;SDS011;64102;48.628;9.002;2023-02-15T07:03:51;10.75;;;3.22;;
75520;SDS011;64102;48.628;9.002;2023-02-15T07:06:16;8.80;;;2.17;;
75520;SDS011;64102;48.628;9.002;2023-02-15T07:08:42;6.65;;;1.90;;
75520;SDS011;64102;48.628;9.002;2023-02-15T07:11:07;11.68;;;2.25;;
75520;SDS011;64102;48.628;9.002;2023-02-15T07:13:51;9.85;;;2.15;;
75520;SDS011;64102;48.628;9.002;2023-02-15T07:16:20;7.63;;;1.50;;
75520;SDS011;64102;48.628;9.002;2023-02-15T07:18:45;4.80;;;0.63;;
75520;SDS011;64102;48.628;9.002;2023-02-15T07:21:11;6.78;;;1.40;;
75520;SDS011;64102;48.628;9.002;2023-02-15T07:23:36;11.33;;;1.77;;
75520;SDS011;64102;48.628;9.002;2023-02-15T07:26:03;8.10;;;1.35;;
75520;SDS011;64102;48.628;9.002;2023-02-15T07:28:29;20.00;;;1.33;;
75520;SDS011;64102;48.628;9.002;2023-02-15T07:30:55;9.65;;;1.70;;
75520;SDS011;64102;48.628;9.002;2023-02-15T07:33:20;7.90;;;1.40;;
75520;SDS011;64102;48.628;9.002;2023-02-15T07:35:52;10.15;;;1.45;;
75520;SDS011;64102;48.628;9.002;2023-02-15T07:38:19;7.85;;;1.23;;
75520;SDS011;64102;48.628;9.002;2023-02-15T07:40:45;11.18;;;1.58;;
75520;SDS011;64102;48.628;9.002;2023-02-15T07:43:11;7.88;;;0.95;;
75520;SDS011;64102;48.628;9.002;2023-02-15T07:45:37;11.07;;;2.47;;
75520;SDS011;64102;48.628;9.002;2023-02-15T07:48:02;10.65;;;1.80;;
75520;SDS011;64102;48.628;9.002;2023-02-15T07:50:28;8.98;;;2.08;;
75520;SDS011;64102;48.628;9.002;2023-02-15T07:52:54;10.98;;;1.92;;
75520;SDS011;64102;48.628;9.002;2023-02-15T07:55:19;9.33;;;2.10;;
75520;SDS011;64102;48.628;9.002;2023-02-15T07:57:45;9.55;;;1.92;;
75520;SDS011;64102;48.628;9.002;2023-02-15T08:00:13;11.57;;;2.58;;
75520;SDS011;64102;48.628;9.002;2023-02-15T08:02:40;9.15;;;1.73;;
75520;SDS011;64102;48.628;9.002;2023-02-15T08:05:06;11.85;;;2.30;;
75520;SDS011;64102;48.628;9.002;2023-02-15T08:07:32;11.02;;;2.15;;
75520;SDS011;64102;48.628;9.002;2023-02-15T08:09:57;11.35;;;2.47;;
75520;SDS011;64102;48.628;9.002;2023-02-15T08:12:25;10.40;;;1.70;;
75520;SDS011;64102;48.628;9.002;2023-02-15T08:14:51;11.35;;;2.45;;
75520;SDS011;64102;48.628;9.002;2023-02-15T08:17:16;10.13;;;2.27;;
75520;SDS011;64102;48.628;9.002;2023-02-15T08:19:42;10.67;;;3.03;;
75520;SDS011;64102;48.628;9.002;2023-02-15T08:22:10;10.50;;;2.28;;
75520;SDS011;64102;48.628;9.002;2023-02-15T08:24:38;11.65;;;2.53;;
75520;SDS011;64102;48.628;9.002;2023-02-15T08:27:04;14.02;;;2.92;;
75520;SDS011;64102;48.628;9.002;2023-02-15T08:29:31;10.38;;;2.85;;
75520;SDS011;64102;48.628;9.002;2023-02-15T08:31:58;12.40;;;3.08;;
75520;SDS011;64102;48.628;9.002;2023-02-15T08:34:27;10.43;;;3.20;;
75520;SDS011;64102;48.628;9.002;2023-02-15T08:36:53;11.23;;;3.28;;
75520;SDS011;64102;48.628;9.002;2023-02-15T08:39:19;9.80;;;2.35;;
75520;SDS011;64102;48.628;9.002;2023-02-15T08:41:45;9.93;;;1.67;;
75520;SDS011;64102;48.628;9.002;2023-02-15T08:44:11;9.32;;;1.73;;
75520;SDS011;64102;48.628;9.002;2023-02-15T08:46:39;8.77;;;1.75;;
75520;SDS011;64102;48.628;9.002;2023-02-15T08:49:07;10.38;;;2.63;;
75520;SDS011;64102;48.628;9.002;2023-02-15T08:51:33;10.45;;;2.58;;
75520;SDS011;64102;48.628;9.002;2023-02-15T08:54:03;9.93;;;2.10;;
75520;SDS011;64102;48.628;9.002;2023-02-15T08:56:32;9.43;;;2.05;;
75520;SDS011;64102;48.628;9.002;2023-02-15T08:59:00;8.20;;;2.05;;
75520;SDS011;64102;48.628;9.002;2023-02-15T09:01:27;9.88;;;1.63;;
75520;SDS011;64102;48.628;9.002;2023-02-15T09:04:04;8.48;;;2.10;;
75520;SDS011;64102;48.628;9.002;2023-02-15T09:06:33;11.27;;;2.53;;
75520;SDS011;64102;48.628;9.002;2023-02-15T09:08:59;10.25;;;2.15;;
75520;SDS011;64102;48.628;9.002;2023-02-15T09:11:29;11.27;;;2.58;;
75520;SDS011;64102;48.628;9.002;2023-02-15T09:13:59;12.27;;;3.03;;
75520;SDS011;64102;48.628;9.002;2023-02-15T09:16:28;9.98;;;2.42;;
75520;SDS011;64102;48.628;9.002;2023-02-15T09:18:55;9.23;;;3.10;;
75520;SDS011;64102;48.628;9.002;2023-02-15T09:21:26;9.90;;;2.17;;
75520;SDS011;64102;48.628;9.002;2023-02-15T09:23:55;10.57;;;3.10;;
75520;SDS011;64102;48.628;9.002;2023-02-15T09:26:23;9.23;;;2.42;;
75520;SDS011;64102;48.628;9.002;2023-02-15T09:28:53;10.27;;;2.53;;
75520;SDS011;64102;48.628;9.002;2023-02-15T09:31:25;10.45;;;2.85;;
75520;SDS011;64102;48.628;9.002;2023-02-15T09:33:52;9.00;;;2.47;;
75520;SDS011;64102;48.628;9.002;2023-02-15T09:36:20;8.90;;;2.50;;
75520;SDS011;64102;48.628;9.002;2023-02-15T09:38:57;9.25;;;2.42;;
75520;SDS011;64102;48.628;9.002;2023-02-15T09:49:28;13.35;;;3.10;;
75520;SDS011;64102;48.628;9.002;2023-02-15T09:55:00;9.82;;;2.72;;
75520;SDS011;64102;48.628;9.002;2023-02-15T09:57:37;10.55;;;2.88;;
75520;SDS011;64102;48.628;9.002;2023-02-15T10:03:12;7.90;;;2.47;;
75520;SDS011;64102;48.628;9.002;2023-02-15T10:06:04;9.90;;;2.28;;
75520;SDS011;64102;48.628;9.002;2023-02-15T10:08:47;7.95;;;2.50;;
75520;SDS011;64102;48.628;9.002;2023-02-15T10:23:40;11.93;;;4.78;;
75520;SDS011;64102;48.628;9.002;2023-02-15T10:34:17;12.52;;;4.45;;
75520;SDS011;64102;48.628;9.002;2023-02-15T10:39:58;12.80;;;4.45;;
75520;SDS011;64102;48.628;9.002;2023-02-15T10:48:41;10.80;;;4.97;;
75520;SDS011;64102;48.628;9.002;2023-02-15T11:03:16;10.43;;;4.60;;
75520;SDS011;64102;48.628;9.002;2023-02-15T11:05:58;10.50;;;4.90;;
75520;SDS011;64102;48.628;9.002;2023-02-15T11:08:29;10.35;;;3.90;;
75520;SDS011;64102;48.628;9.002;2023-02-15T11:11:00;11.07;;;5.00;;
75520;SDS011;64102;48.628;9.002;2023-02-15T11:13:32;10.52;;;3.78;;
75520;SDS011;64102;48.628;9.002;2023-02-15T11:16:01;9.23;;;2.85;;
75520;SDS011;64102;48.628;9.002;2023-02-15T11:23:43;8.48;;;4.05;;
75520;SDS011;64102;48.628;9.002;2023-02-15T11:26:14;8.52;;;2.83;;
75520;SDS011;64102;48.628;9.002;2023-02-15T11:28:49;9.80;;;3.58;;
75520;SDS011;64102;48.628;9.002;2023-02-15T11:31:21;8.55;;;3.20;;
75520;SDS011;64102;48.628;9.002;2023-02-15T11:33:51;8.35;;;3.05;;
75520;SDS011;64102;48.628;9.002;2023-02-15T11:36:24;6.78;;;2.78;;
75520;SDS011;64102;48.628;9.002;2023-02-15T11:38:56;7.68;;;3.58;;
75520;SDS011;64102;48.628;9.002;2023-02-15T11:41:27;7.53;;;2.53;;
75520;SDS011;64102;48.628;9.002;2023-02-15T11:46:31;8.07;;;4.13;;
75520;SDS011;64102;48.628;9.002;2023-02-15T11:48:56;7.78;;;3.17;;
75520;SDS011;64102;48.628;9.002;2023-02-15T11:51:23;8.85;;;5.60;;
75520;SDS011;64102;48.628;9.002;2023-02-15T11:53:49;8.48;;;3.30;;
75520;SDS011;64102;48.628;9.002;2023-02-15T11:56:19;6.97;;;2.47;;
75520;SDS011;64102;48.628;9.002;2023-02-15T11:58:59;8.23;;;2.72;;
75520;SDS011;64102;48.628;9.002;2023-02-15T12:01:33;7.13;;;3.15;;
75520;SDS011;64102;48.628;9.002;2023-02-15T12:06:34;8.88;;;3.10;;
75520;SDS011;64102;48.628;9.002;2023-02-15T12:09:17;7.85;;;3.45;;
75520;SDS011;64102;48.628;9.002;2023-02-15T12:11:52;8.05;;;2.20;;
75520;SDS011;64102;48.628;9.002;2023-02-15T12:14:17;6.90;;;2.33;;
75520;SDS011;64102;48.628;9.002;2023-02-15T12:16:48;8.25;;;2.28;;
75520;SDS011;64102;48.628;9.002;2023-02-15T12:19:32;7.13;;;2.00;;
75520;SDS011;64102;48.628;9.002;2023-02-15T12:22:03;7.57;;;2.65;;
75520;SDS011;64102;48.628;9.002;2023-02-15T12:24:36;7.13;;;1.83;;
75520;SDS011;64102;48.628;9.002;2023-02-15T12:29:47;9.43;;;2.88;;
75520;SDS011;64102;48.628;9.002;2023-02-15T12:35:31;6.15;;;1.92;;
75520;SDS011;64102;48.628;9.002;2023-02-15T12:40:30;7.28;;;1.67;;
75520;SDS011;64102;48.628;9.002;2023-02-15T12:42:57;6.60;;;1.75;;
75520;SDS011;64102;48.628;9.002;2023-02-15T12:45:27;7.22;;;1.63;;
75520;SDS011;64102;48.628;9.002;2023-02-15T12:50:34;7.63;;;2.20;;
75520;SDS011;64102;48.628;9.002;2023-02-15T12:55:56;7.90;;;2.17;;
75520;SDS011;64102;48.628;9.002;2023-02-15T12:58:24;8.27;;;2.35;;
75520;SDS011;64102;48.628;9.002;2023-02-15T13:01:02;7.55;;;1.88;;
75520;SDS011;64102;48.628;9.002;2023-02-15T13:03:28;6.72;;;1.73;;
75520;SDS011;64102;48.628;9.002;2023-02-15T13:05:54;6.90;;;1.60;;
75520;SDS011;64102;48.628;9.002;2023-02-15T13:13:28;6.88;;;1.33;;
75520;SDS011;64102;48.628;9.002;2023-02-15T13:15:57;7.53;;;1.80;;
75520;SDS011;64102;48.628;9.002;2023-02-15T13:18:42;7.07;;;1.00;;
75520;SDS011;64102;48.628;9.002;2023-02-15T13:21:11;7.93;;;1.63;;
75520;SDS011;64102;48.628;9.002;2023-02-15T13:23:40;8.55;;;2.00;;
75520;SDS011;64102;48.628;9.002;2023-02-15T13:28:46;7.47;;;1.15;;
75520;SDS011;64102;48.628;9.002;2023-02-15T13:31:39;7.82;;;1.15;;
75520;SDS011;64102;48.628;9.002;2023-02-15T13:39:21;7.20;;;0.90;;
75520;SDS011;64102;48.628;9.002;2023-02-15T13:42:05;7.63;;;0.98;;
75520;SDS011;64102;48.628;9.002;2023-02-15T13:50:18;6.95;;;1.00;;
75520;SDS011;64102;48.628;9.002;2023-02-15T13:55:44;7.65;;;1.85;;
75520;SDS011;64102;48.628;9.002;2023-02-15T14:17:30;9.35;;;1.80;;
75520;SDS011;64102;48.628;9.002;2023-02-15T14:20:07;8.55;;;1.67;;
75520;SDS011;64102;48.628;9.002;2023-02-15T14:22:43;8.90;;;1.45;;
75520;SDS011;64102;48.628;9.002;2023-02-15T14:25:20;10.40;;;1.70;;
75520;SDS011;64102;48.628;9.002;2023-02-15T14:30:44;9.70;;;1.65;;
75520;SDS011;64102;48.628;9.002;2023-02-15T14:33:24;9.25;;;1.70;;
75520;SDS011;64102;48.628;9.002;2023-02-15T14:35:53;8.63;;;1.50;;
75520;SDS011;64102;48.628;9.002;2023-02-15T14:38:36;6.82;;;1.25;;
75520;SDS011;64102;48.628;9.002;2023-02-15T14:41:09;8.88;;;1.50;;
75520;SDS011;64102;48.628;9.002;2023-02-15T14:44:07;9.55;;;1.55;;
75520;SDS011;64102;48.628;9.002;2023-02-15T14:46:58;8.90;;;1.75;;
75520;SDS011;64102;48.628;9.002;2023-02-15T14:49:31;10.50;;;1.77;;
75520;SDS011;64102;48.628;9.002;2023-02-15T14:52:04;8.65;;;1.92;;
75520;SDS011;64102;48.628;9.002;2023-02-15T14:59:27;9.68;;;1.52;;
75520;SDS011;64102;48.628;9.002;2023-02-15T15:12:48;10.15;;;1.92;;
75520;SDS011;64102;48.628;9.002;2023-02-15T15:20:43;9.02;;;1.80;;
75520;SDS011;64102;48.628;9.002;2023-02-15T15:25:47;9.60;;;1.83;;
75520;SDS011;64102;48.628;9.002;2023-02-15T15:31:06;9.27;;;1.70;;
75520;SDS011;64102;48.628;9.002;2023-02-15T15:34:06;9.68;;;1.73;;
75520;SDS011;64102;48.628;9.002;2023-02-15T15:50:52;10.20;;;0.90;;
75520;SDS011;64102;48.628;9.002;2023-02-15T15:53:23;8.65;;;1.60;;
75520;SDS011;64102;48.628;9.002;2023-02-15T15:55:52;6.78;;;0.90;;
75520;SDS011;64102;48.628;9.002;2023-02-15T15:58:23;8.05;;;1.00;;
75520;SDS011;64102;48.628;9.002;2023-02-15T16:00:56;7.22;;;1.10;;
75520;SDS011;64102;48.628;9.002;2023-02-15T16:03:26;7.18;;;0.98;;
75520;SDS011;64102;48.628;9.002;2023-02-15T16:05:52;7.47;;;0.70;;
75520;SDS011;64102;48.628;9.002;2023-02-15T16:08:25;6.00;;;0.85;;
75520;SDS011;64102;48.628;9.002;2023-02-15T16:10:56;7.68;;;1.30;;
75520;SDS011;64102;48.628;9.002;2023-02-15T16:13:23;7.65;;;1.45;;
75520;SDS011;64102;48.628;9.002;2023-02-15T16:15:52;9.63;;;1.33;;
75520;SDS011;64102;48.628;9.002;2023-02-15T16:18:21;9.00;;;1.00;;
75520;SDS011;64102;48.628;9.002;2023-02-15T16:20:51;10.00;;;1.33;;
75520;SDS011;64102;48.628;9.002;2023-02-15T16:26:08;7.47;;;1.10;;
75520;SDS011;64102;48.628;9.002;2023-02-15T16:28:49;7.88;;;1.08;;
75520;SDS011;64102;48.628;9.002;2023-02-15T16:31:17;5.35;;;0.63;;
75520;SDS011;64102;48.628;9.002;2023-02-15T16:33:43;7.03;;;1.05;;
75520;SDS011;64102;48.628;9.002;2023-02-15T16:36:20;7.63;;;1.25;;
75520;SDS011;64102;48.628;9.002;2023-02-15T16:41:17;11.55;;;1.52;;
75520;SDS011;64102;48.628;9.002;2023-02-15T16:43:53;8.30;;;1.38;;
75520;SDS011;64102;48.628;9.002;2023-02-15T16:46:25;9.35;;;1.42;;
75520;SDS011;64102;48.628;9.002;2023-02-15T16:48:54;8.38;;;1.30;;
75520;SDS011;64102;48.628;9.002;2023-02-15T16:51:26;8.98;;;1.30;;
75520;SDS011;64102;48.628;9.002;2023-02-15T16:53:54;8.00;;;0.82;;
75520;SDS011;64102;48.628;9.002;2023-02-15T16:56:25;8.13;;;1.25;;
75520;SDS011;64102;48.628;9.002;2023-02-15T16:58:53;11.93;;;1.60;;
75520;SDS011;64102;48.628;9.002;2023-02-15T17:01:21;8.23;;;1.08;;
75520;SDS011;64102;48.628;9.002;2023-02-15T17:03:50;8.63;;;1.48;;
75520;SDS011;64102;48.628;9.002;2023-02-15T17:06:25;8.52;;;1.20;;
75520;SDS011;64102;48.628;9.002;2023-02-15T17:08:56;11.23;;;1.45;;
75520;SDS011;64102;48.628;9.002;2023-02-15T17:11:36;8.48;;;1.55;;
75520;SDS011;64102;48.628;9.002;2023-02-15T17:16:47;9.82;;;1.73;;
75520;SDS011;64102;48.628;9.002;2023-02-15T17:19:19;12.75;;;1.52;;
75520;SDS011;64102;48.628;9.002;2023-02-15T17:21:52;8.05;;;1.63;;
75520;SDS011;64102;48.628;9.002;2023-02-15T17:24:39;7.88;;;1.17;;
75520;SDS011;64102;48.628;9.002;2023-02-15T17:27:19;8.88;;;1.08;;
75520;SDS011;64102;48.628;9.002;2023-02-15T17:29:48;9.73;;;1.63;;
75520;SDS011;64102;48.628;9.002;2023-02-15T17:32:20;10.52;;;1.20;;
75520;SDS011;64102;48.628;9.002;2023-02-15T17:40:01;9.03;;;0.90;;
75520;SDS011;64102;48.628;9.002;2023-02-15T17:42:39;7.07;;;1.38;;
75520;SDS011;64102;48.628;9.002;2023-02-15T17:45:04;9.60;;;0.97;;
75520;SDS011;64102;48.628;9.002;2023-02-15T17:47:30;7.50;;;1.20;;
75520;SDS011;64102;48.628;9.002;2023-02-15T17:49:56;10.35;;;1.67;;
75520;SDS011;64102;48.628;9.002;2023-02-15T17:52:21;7.32;;;1.08;;
75520;SDS011;64102;48.628;9.002;2023-02-15T17:54:49;9.05;;;1.25;;
75520;SDS011;64102;48.628;9.002;2023-02-15T17:57:33;8.00;;;1.38;;
75520;SDS011;64102;48.628;9.002;2023-02-15T17:59:58;8.03;;;0.77;;
75520;SDS011;64102;48.628;9.002;2023-02-15T18:02:42;13.30;;;0.80;;
75520;SDS011;64102;48.628;9.002;2023-02-15T18:05:26;10.23;;;0.90;;
75520;SDS011;64102;48.628;9.002;2023-02-15T18:08:12;8.38;;;0.85;;
75520;SDS011;64102;48.628;9.002;2023-02-15T18:11:00;8.27;;;0.95;;
75520;SDS011;64102;48.628;9.002;2023-02-15T18:13:44;7.15;;;0.50;;
75520;SDS011;64102;48.628;9.002;2023-02-15T18:16:12;5.95;;;0.73;;
75520;SDS011;64102;48.628;9.002;2023-02-15T18:18:39;5.95;;;0.88;;
75520;SDS011;64102;48.628;9.002;2023-02-15T18:21:04;7.57;;;1.08;;
75520;SDS011;64102;48.628;9.002;2023-02-15T18:23:32;7.80;;;0.98;;
75520;SDS011;64102;48.628;9.002;2023-02-15T18:25:57;5.30;;;0.82;;
75520;SDS011;64102;48.628;9.002;2023-02-15T18:28:23;7.93;;;1.10;;
75520;SDS011;64102;48.628;9.002;2023-02-15T18:30:48;8.00;;;0.90;;
75520;SDS011;64102;48.628;9.002;2023-02-15T18:36:03;7.50;;;0.82;;
75520;SDS011;64102;48.628;9.002;2023-02-15T18:38:31;7.38;;;0.82;;
75520;SDS011;64102;48.628;9.002;2023-02-15T18:40:57;6.50;;;0.82;;